20:41
Airports
Links
Donate
Help keep this website running!
PayPal
Bitcoin
METAR
LICT 221955Z 12004KT CAVOK 20/16 Q1021 RMK SKC VIS MIN 9999 WIND THR13 13003KT BLU
Current Weather Conditions at LICT
VFR 19:55:00 22-09-17
Altimeter:30.15 hg
Temp:20.0°c 68°f
Dew point:16.0°c 61°f
Wind:4 knots, 4.6 mph, 2 m/s, from 120°
Visibility:6.21 statute miles
(CAVOK)
Past METAR reports
VFR 18:55:00 22-09-17
Altimeter:30.15 hg
Temp:21.0°c 70°f
Dew point:16.0°c 61°f
Wind:2 knots, 2.3 mph, 1 m/s,
Variable direction
Visibility:6.21 statute miles
(CAVOK)
LICT 221855Z VRB02KT CAVOK 21/16 Q1021 RMK SKC VIS MIN 9999 WIND THR13 05002KT BLU
VFR 17:55:00 22-09-17
Altimeter:30.12 hg
Temp:22.0°c 72°f
Dew point:17.0°c 63°f
Wind:1 knots, 1.2 mph, 1 m/s,
Variable direction
Visibility:6.21 statute miles
2000(FEW) A few
LICT 221755Z VRB01KT 9999 FEW020 22/17 Q1020 RMK FEW VIS MIN 9999 WIND THR13 30002KT BLU
VFR 16:55:00 22-09-17
Altimeter:30.12 hg
Temp:23.0°c 73°f
Dew point:18.0°c 64°f
Wind:5 knots, 5.8 mph, 3 m/s, from 290°
Visibility:6.21 statute miles
2500(FEW) A few
LICT 221655Z 29005KT 9999 FEW025 23/18 Q1020 RMK FEW VIS MIN 9999 WIND THR13 30005KT BLU
VFR 15:55:00 22-09-17
Altimeter:30.12 hg
Temp:24.0°c 75°f
Dew point:16.0°c 61°f
Wind:10 knots, 11.5 mph, 5 m/s, from 230°
Visibility:6.21 statute miles
2500(FEW) A few
LICT 221555Z 23010KT 9999 FEW025 24/16 Q1020 RMK FEW VIS MIN 9999 WIND THR13 22006KT BLU
VFR 14:55:00 22-09-17
Altimeter:30.12 hg
Temp:25.0°c 77°f
Dew point:15.0°c 59°f
Wind:12 knots, 13.8 mph, 6 m/s, from 220°
Visibility:6.21 statute miles
2500(FEW) A few
LICT 221455Z 22012KT 9999 FEW025 25/15 Q1020 RMK FEW VIS MIN 9999 WIND THR13 22010KT BLU
TAF
TAF LICT 222000Z 2221/2306 12005KT CAVOK
Forecast at LICT
21:00 22-09-17 to 06:00 23-09-17
NSW
Wind:5 Knots from 120°
Visibility:6.21 statute miles
NSC